Startpagina
METAR-TAF:

METAR-TAF

Vliegvelden :

Luchthaven Ankara Esenboga

Ankara Esenboğa, Turkije

breedte: 40-07N, lengte: 032-59E, hoogte: 953 m

Actueel weer

Dit bericht is 24 minuten geleden gemaakt, om 14:20 UTC
Wind 3 kt uit variabele richting
Temperatuur 16°C
Vochtigheid 16%
Druk 1009 hPa
Zicht 10 km of meer
geen wolken onder 1500 m en geen cumulonimbus

METAR: LTAC 261420Z VRB03KT CAVOK 16/M10 Q1009 NOSIG RMK RWY21L 12003KT 080V240 RWY03L VRB02KT RWY21R 25004KT 200V270

Tijdstip: 17:44 (14:44 UTC)

Verwachting

Dit bericht is 4 uur en het 4 minuten geleden gemaakt, om 10:40 UTC
Verwachting geldig van 26 om 12 UTC tot 27 om 12 UTC
Wind 2 kt uit variabele richting
Zicht 10 km of meer
geen wolken onder 1500 m en geen cumulonimbus
Wijzigt naar
van 26 om 15 UTC tot 26 om 17 UTC
Verspreide wolken op 4000 ft

TAF: LTAC 261040Z 2612/2712 VRB02KT CAVOK BECMG 2615/2617 SCT040

Waarnemingen en weersverwachtingen van meer dan 4000 vliegvelden (METAR en TAF).

De beschikbare stations zijn de gele en rode punten op de kaart.

Ga met uw muis naar het station om de naam te zien.

Klik dan om waarnemingen en weersverwachtingen te zien.

kaart wijzigen: klik op de groene knoppen met een zwart kruis om in te zoomen, op de groene knop met een streepje om uit te zoomen of op de groene pijlen voor aangrenzende kaarten.


METAR-TAF: